This is the latest recevied weather packets stored in our database for station/object AD8BV. If no packets are shown the sender has not sent any weather packets the latest 10 day(s).
| Time | Temp. | Humidity | Pressure | Rain* | Wind** | Luminosity | Snow |
|---|---|---|---|---|---|---|---|
| 1777825864 | 15.56° C | 49% | 1014.2 hPa | 0 mm | - | 720 W/m² | - |
| 1777825561 | 13.89° C | 54% | 1014.4 hPa | 0 mm | - | 497 W/m² | - |
| 1777825259 | 13.89° C | 53% | 1014.3 hPa | 0 mm | - | 381 W/m² | - |
| 1777824950 | 13.33° C | 53% | 1014.5 hPa | 0 mm | - | 347 W/m² | - |
| 1777824646 | 12.78° C | 53% | 1014.4 hPa | 0 mm | - | 262 W/m² | - |
| 1777824344 | 12.78° C | 53% | 1014.4 hPa | 0 mm | - | 237 W/m² | - |
| 1777824039 | 12.78° C | 53% | 1014.5 hPa | 0 mm | - | 215 W/m² | - |
| 1777823735 | 12.78° C | 55% | 1014.6 hPa | 0 mm | - | 240 W/m² | - |
| 1777823433 | 12.78° C | 53% | 1014.7 hPa | 0 mm | - | 288 W/m² | - |
| 1777823130 | 12.78° C | 55% | 1014.8 hPa | 0 mm | - | 330 W/m² | - |
| 1777822827 | 12.22° C | 55% | 1014.6 hPa | 0 mm | - | 334 W/m² | - |
| 1777822526 | 12.22° C | 54% | 1015 hPa | 0 mm | - | 288 W/m² | - |
| 1777822223 | 11.67° C | 54% | 1014.9 hPa | 0 mm | - | 360 W/m² | - |
| 1777821920 | 11.67° C | 56% | 1014.8 hPa | 0 mm | - | 244 W/m² | - |
| 1777821618 | 11.67° C | 56% | 1015 hPa | 0 mm | - | 185 W/m² | - |
| 1777821316 | 11.67° C | 57% | 1015 hPa | 0 mm | - | 178 W/m² | - |
| 1777821012 | 11.67° C | 59% | 1015 hPa | 0 mm | - | 271 W/m² | - |
| 1777820709 | 11.11° C | 56% | 1015.2 hPa | 0 mm | - | 300 W/m² | - |
| 1777820404 | 10.56° C | 56% | 1015.3 hPa | 0 mm | - | 176 W/m² | - |
| 1777820103 | 10.56° C | 56% | 1014.9 hPa | 0 mm | - | 100 W/m² | - |
| 1777819799 | 10.56° C | 59% | 1015.2 hPa | 0 mm | - | 113 W/m² | - |
| 1777819497 | 10.56° C | 57% | 1015.2 hPa | 0 mm | - | 118 W/m² | - |
| 1777819195 | 10.56° C | 58% | 1015.2 hPa | 0 mm | - | 147 W/m² | - |
| 1777818891 | 10.56° C | 57% | 1015.2 hPa | 0 mm | - | 148 W/m² | - |
| 1777818587 | 10.56° C | 58% | 1015.2 hPa | 0 mm | - | 128 W/m² | - |
* Rain latest hour (hover to see other rain measurements)
** Current wind speed in m/s (hover to see current wind gust speed)